Columbus, North Dakota
Current Conditions -  °F | °C
As of 6:00 AM on Monday 24 Nov 2014 (Local Time) from CYEN Reporting Station
Clear Clear  
Wind Chill: -26°   Ceiling: Unl
Heat Index: -17°   Visibility: 15mi
Dew Point: -19°   Wind: 10mph
Humidity: 85%   Direction: 300°WNW
Pressure: 29.86"   Gusts: NA
Location:  48.9°N, 102.78°W
Report Text: CYEN 241200Z 30009KT 15SM SKC M17/M19 A2986 RMK SNW CVR/ MUCHLOOSE SLP161
Loading
Personal Weather Stations






























Interactive Weather Map New forecast layout! Learn more

10-Day Weather Forecast

Advertisements
Track Severe Weather on mobile